createdAt,value
2016-11-02T00:00:00.275Z,7.2
2016-11-02T00:00:20.828Z,7.3
2016-11-02T00:00:41.373Z,7.2
2016-11-02T00:01:01.937Z,7.2
2016-11-02T00:01:22.480Z,7.2
2016-11-02T00:01:43.024Z,7.2
2016-11-02T00:02:03.590Z,7.2
2016-11-02T00:02:24.228Z,7.3
2016-11-02T00:02:44.771Z,7.2
2016-11-02T00:03:05.344Z,7.3
2016-11-02T00:03:25.904Z,7.2
2016-11-02T00:03:46.466Z,7.3
2016-11-02T00:04:07.018Z,7.2
2016-11-02T00:04:27.583Z,7.2
2016-11-02T00:04:48.108Z,7.2
2016-11-02T00:05:08.679Z,7.2
2016-11-02T00:05:29.230Z,7.3
2016-11-02T00:05:49.809Z,7.3
2016-11-02T00:06:10.376Z,7.2
2016-11-02T00:06:30.925Z,7.3
2016-11-02T00:06:51.473Z,7.2
2016-11-02T00:07:12.022Z,7.3
2016-11-02T00:07:32.557Z,7.2
2016-11-02T00:07:53.168Z,7.2
2016-11-02T00:08:13.769Z,7.2
2016-11-02T00:08:34.327Z,7.2
2016-11-02T00:08:54.858Z,7.3
2016-11-02T00:09:15.427Z,7.2
2016-11-02T00:09:35.985Z,7.2
2016-11-02T00:09:56.599Z,7.2
2016-11-02T00:10:17.214Z,7.2
2016-11-02T00:10:37.816Z,7.2
2016-11-02T00:10:58.369Z,7.1
2016-11-02T00:11:18.920Z,7.1
2016-11-02T00:11:39.488Z,7.1
2016-11-02T00:12:00.054Z,7.1
2016-11-02T00:12:20.616Z,7.1
2016-11-02T00:12:41.149Z,7.2
2016-11-02T00:13:01.699Z,7.1
2016-11-02T00:13:22.264Z,7.1
2016-11-02T00:13:42.803Z,7.2
2016-11-02T00:14:03.343Z,7.1
2016-11-02T00:14:23.920Z,7.2
2016-11-02T00:14:44.479Z,7.2
2016-11-02T00:15:05.022Z,7.1
2016-11-02T00:15:25.555Z,7.1
2016-11-02T00:15:46.137Z,7.1
2016-11-02T00:16:06.705Z,7.1
2016-11-02T00:16:27.295Z,7.1
2016-11-02T00:16:47.844Z,7.1
2016-11-02T00:17:08.415Z,7
2016-11-02T00:17:28.970Z,7.1
2016-11-02T00:17:49.532Z,7
2016-11-02T00:18:10.076Z,6.9
2016-11-02T00:18:30.622Z,7
2016-11-02T00:18:51.208Z,7
2016-11-02T00:19:11.760Z,7
2016-11-02T00:19:32.303Z,6.9
2016-11-02T00:19:52.858Z,7
2016-11-02T00:20:13.460Z,7
2016-11-02T00:20:34.015Z,6.9
2016-11-02T00:20:54.570Z,6.9
2016-11-02T00:21:15.123Z,6.9
2016-11-02T00:21:35.671Z,6.9
2016-11-02T00:21:56.257Z,6.9
2016-11-02T00:22:16.849Z,6.9
2016-11-02T00:22:37.405Z,6.9
2016-11-02T00:22:57.966Z,6.9
2016-11-02T00:23:18.558Z,7
2016-11-02T00:23:39.679Z,7
2016-11-02T00:24:00.276Z,7
2016-11-02T00:24:20.869Z,7
2016-11-02T00:24:42.190Z,6.9
2016-11-02T00:25:02.758Z,6.9
2016-11-02T00:25:23.322Z,7.1
2016-11-02T00:25:43.879Z,7
2016-11-02T00:26:04.455Z,6.9
2016-11-02T00:26:24.992Z,7.1
2016-11-02T00:26:45.604Z,6.9
2016-11-02T00:27:06.157Z,7
2016-11-02T00:27:26.708Z,6.9
2016-11-02T00:27:47.259Z,7
2016-11-02T00:28:07.869Z,7
2016-11-02T00:28:28.415Z,6.9
2016-11-02T00:28:48.967Z,6.9
2016-11-02T00:29:09.521Z,6.9
2016-11-02T00:29:30.074Z,6.9
2016-11-02T00:29:50.630Z,7
2016-11-02T00:30:11.172Z,6.9
2016-11-02T00:30:31.773Z,7
2016-11-02T00:30:52.384Z,6.9
2016-11-02T00:31:12.949Z,6.9
2016-11-02T00:31:33.544Z,6.9
2016-11-02T00:31:54.098Z,6.9
2016-11-02T00:32:14.668Z,6.9
2016-11-02T00:32:35.249Z,6.9
2016-11-02T00:32:55.879Z,6.8
2016-11-02T00:33:16.449Z,7
2016-11-02T00:33:37.013Z,6.8
2016-11-02T00:33:57.567Z,7
2016-11-02T00:34:18.161Z,6.8
2016-11-02T00:34:38.752Z,7
2016-11-02T00:34:59.325Z,6.9
2016-11-02T00:35:19.888Z,6.9
2016-11-02T00:35:40.481Z,6.9
2016-11-02T00:36:01.047Z,6.9
2016-11-02T00:36:21.599Z,6.9
2016-11-02T00:36:42.216Z,6.9
2016-11-02T00:37:02.776Z,6.9
2016-11-02T00:37:23.351Z,6.9
2016-11-02T00:37:43.891Z,6.9
2016-11-02T00:38:04.468Z,6.9
2016-11-02T00:38:25.051Z,7
2016-11-02T00:38:45.627Z,6.9
2016-11-02T00:39:06.229Z,6.9
2016-11-02T00:39:26.795Z,6.9
2016-11-02T00:39:47.364Z,6.8
2016-11-02T00:40:07.931Z,6.8
2016-11-02T00:40:28.505Z,6.8
2016-11-02T00:40:49.049Z,6.9
2016-11-02T00:41:09.597Z,6.8
2016-11-02T00:41:30.148Z,6.8
2016-11-02T00:41:50.709Z,6.9
2016-11-02T00:42:11.284Z,6.9
2016-11-02T00:42:31.842Z,6.8
2016-11-02T00:42:52.382Z,6.8
2016-11-02T00:43:12.941Z,6.8
2016-11-02T00:43:33.545Z,6.8
2016-11-02T00:43:54.099Z,6.8
2016-11-02T00:44:14.631Z,6.8
2016-11-02T00:44:35.225Z,6.9
2016-11-02T00:44:55.825Z,6.9
2016-11-02T00:45:16.377Z,6.9
2016-11-02T00:45:36.925Z,6.9
2016-11-02T00:45:57.464Z,7
2016-11-02T00:46:18.019Z,6.9
2016-11-02T00:46:38.573Z,6.9
2016-11-02T00:46:59.133Z,7
2016-11-02T00:47:19.706Z,6.8
2016-11-02T00:47:40.256Z,6.8
2016-11-02T00:48:00.834Z,6.9
2016-11-02T00:48:21.420Z,6.8
2016-11-02T00:48:41.986Z,6.8
2016-11-02T00:49:02.528Z,6.9
2016-11-02T00:49:23.141Z,6.8
2016-11-02T00:49:43.689Z,6.8
2016-11-02T00:50:04.287Z,6.9
2016-11-02T00:50:24.822Z,6.9
2016-11-02T00:50:45.384Z,6.8
2016-11-02T00:51:05.981Z,6.8
2016-11-02T00:51:26.523Z,6.9
2016-11-02T00:51:47.097Z,6.9
2016-11-02T00:52:07.694Z,6.9
2016-11-02T00:52:28.332Z,6.9
2016-11-02T00:52:48.879Z,6.8
2016-11-02T00:53:09.429Z,7
2016-11-02T00:53:30.006Z,6.9
2016-11-02T00:53:50.568Z,6.9
2016-11-02T00:54:11.157Z,6.9
2016-11-02T00:54:31.705Z,6.9
2016-11-02T00:54:52.263Z,6.9
2016-11-02T00:55:12.840Z,6.9
2016-11-02T00:55:33.399Z,6.9
2016-11-02T00:55:53.927Z,7
2016-11-02T00:56:14.478Z,6.9
2016-11-02T00:56:35.050Z,7
2016-11-02T00:56:55.616Z,6.9
2016-11-02T00:57:16.203Z,6.9
2016-11-02T00:57:36.760Z,6.9
2016-11-02T00:57:57.321Z,6.9
2016-11-02T00:58:17.896Z,6.9
2016-11-02T00:58:38.493Z,6.9
2016-11-02T00:58:59.045Z,7
2016-11-02T00:59:19.595Z,6.9
2016-11-02T00:59:40.214Z,6.9
2016-11-02T01:00:00.750Z,6.9
2016-11-02T01:00:21.302Z,7
2016-11-02T01:00:41.849Z,6.9
2016-11-02T01:01:02.430Z,6.9
2016-11-02T01:01:22.983Z,7
2016-11-02T01:01:43.546Z,6.9
2016-11-02T01:02:04.118Z,6.9
2016-11-02T01:02:24.682Z,6.9
2016-11-02T01:02:45.239Z,6.9
2016-11-02T01:03:05.802Z,6.9
2016-11-02T01:03:26.400Z,6.9
2016-11-02T01:03:46.962Z,6.9
2016-11-02T01:04:07.509Z,6.9
2016-11-02T01:04:28.039Z,6.8
2016-11-02T01:04:48.647Z,6.9
2016-11-02T01:05:09.237Z,6.9
2016-11-02T01:05:29.788Z,6.9
2016-11-02T01:05:50.356Z,6.9
2016-11-02T01:06:10.911Z,6.9
2016-11-02T01:06:31.501Z,6.9
2016-11-02T01:06:52.091Z,6.8
2016-11-02T01:07:12.653Z,6.9
2016-11-02T01:07:33.192Z,6.8
2016-11-02T01:07:53.786Z,6.9
2016-11-02T01:08:14.387Z,6.9
2016-11-02T01:08:34.961Z,6.9
2016-11-02T01:08:55.542Z,6.8
2016-11-02T01:09:16.109Z,6.8
2016-11-02T01:09:36.692Z,6.8
2016-11-02T01:09:57.276Z,6.7
2016-11-02T01:10:17.830Z,6.7
2016-11-02T01:10:38.383Z,6.7
2016-11-02T01:10:58.936Z,6.7
2016-11-02T01:11:19.483Z,6.7
2016-11-02T01:11:40.037Z,6.7
2016-11-02T01:12:00.625Z,6.7
2016-11-02T01:12:21.164Z,6.6
2016-11-02T01:12:41.734Z,6.6
2016-11-02T01:13:02.275Z,6.6
2016-11-02T01:13:22.849Z,6.6
2016-11-02T01:13:43.417Z,6.5
2016-11-02T01:14:03.977Z,6.6
2016-11-02T01:14:24.516Z,6.5
2016-11-02T01:14:45.052Z,6.5
2016-11-02T01:15:05.632Z,6.6
2016-11-02T01:15:26.216Z,6.6
2016-11-02T01:15:46.777Z,6.6
2016-11-02T01:16:07.361Z,6.5
2016-11-02T01:16:27.908Z,6.5
2016-11-02T01:16:48.472Z,6.5
2016-11-02T01:17:09.029Z,6.5
2016-11-02T01:17:29.598Z,6.5
2016-11-02T01:17:50.151Z,6.5
2016-11-02T01:18:10.726Z,6.5
2016-11-02T01:18:31.278Z,6.5
2016-11-02T01:18:51.872Z,6.5
2016-11-02T01:19:12.419Z,6.5
2016-11-02T01:19:32.983Z,6.4
2016-11-02T01:19:53.532Z,6.5
2016-11-02T01:20:14.079Z,6.5
2016-11-02T01:20:34.662Z,6.5
2016-11-02T01:20:55.197Z,6.5
2016-11-02T01:21:15.753Z,6.4
2016-11-02T01:21:36.328Z,6.4
2016-11-02T01:21:56.897Z,6.4
2016-11-02T01:22:17.488Z,6.4
2016-11-02T01:22:38.039Z,6.4
2016-11-02T01:22:58.588Z,6.4
2016-11-02T01:23:19.164Z,6.4
2016-11-02T01:23:39.719Z,6.5
2016-11-02T01:24:00.274Z,6.5
2016-11-02T01:24:20.831Z,6.4
2016-11-02T01:24:41.373Z,6.4
2016-11-02T01:25:01.955Z,6.5
2016-11-02T01:25:22.508Z,6.4
2016-11-02T01:25:43.050Z,6.4
2016-11-02T01:26:03.664Z,6.4
2016-11-02T01:26:24.216Z,6.4
2016-11-02T01:26:44.812Z,6.4
2016-11-02T01:27:05.407Z,6.4
2016-11-02T01:27:25.983Z,6.4
2016-11-02T01:27:46.528Z,6.5
2016-11-02T01:28:07.105Z,6.5
2016-11-02T01:28:27.651Z,6.5
2016-11-02T01:28:48.195Z,6.4
2016-11-02T01:29:08.745Z,6.4
2016-11-02T01:29:29.332Z,6.5
2016-11-02T01:29:49.918Z,6.4
2016-11-02T01:30:10.480Z,6.4
2016-11-02T01:30:31.033Z,6.5
2016-11-02T01:30:51.592Z,6.4
2016-11-02T01:31:12.133Z,6.5
2016-11-02T01:31:32.694Z,6.4
2016-11-02T01:31:53.246Z,6.4
2016-11-02T01:32:13.783Z,6.5
2016-11-02T01:32:34.328Z,6.4
2016-11-02T01:32:54.918Z,6.5
2016-11-02T01:33:15.465Z,6.4
2016-11-02T01:33:36.012Z,6.5
2016-11-02T01:33:56.557Z,6.4
2016-11-02T01:34:17.132Z,6.4
2016-11-02T01:34:37.687Z,6.5
2016-11-02T01:34:58.327Z,6.5
2016-11-02T01:35:18.895Z,6.4
2016-11-02T01:35:39.459Z,6.3
2016-11-02T01:35:59.988Z,6.4
2016-11-02T01:36:20.567Z,6.3
2016-11-02T01:36:41.129Z,6.4
2016-11-02T01:37:01.723Z,6.3
2016-11-02T01:37:22.252Z,6.3
2016-11-02T01:37:42.849Z,6.4
2016-11-02T01:38:03.436Z,6.3
2016-11-02T01:38:24.001Z,6.4
2016-11-02T01:38:45.321Z,6.4
2016-11-02T01:39:05.879Z,6.4
2016-11-02T01:39:26.423Z,6.4
2016-11-02T01:39:47.001Z,6.4
2016-11-02T01:40:07.553Z,6.4
2016-11-02T01:40:28.101Z,6.3
2016-11-02T01:40:48.700Z,6.3
2016-11-02T01:41:09.260Z,6.3
2016-11-02T01:41:29.803Z,6.4
2016-11-02T01:41:50.397Z,6.3
2016-11-02T01:42:10.961Z,6.4
2016-11-02T01:42:31.510Z,6.3
2016-11-02T01:42:52.078Z,6.4
2016-11-02T01:43:12.640Z,6.3
2016-11-02T01:43:33.194Z,6.2
2016-11-02T01:43:53.749Z,6.3
2016-11-02T01:44:14.296Z,6.3
2016-11-02T01:44:34.868Z,6.3
2016-11-02T01:44:55.423Z,6.3
2016-11-02T01:45:16.004Z,6.3
2016-11-02T01:45:36.562Z,6.3
2016-11-02T01:45:57.117Z,6.3
2016-11-02T01:46:17.663Z,6.4
2016-11-02T01:46:38.207Z,6.3
2016-11-02T01:46:59.753Z,6.3
2016-11-02T01:47:20.330Z,6.3
2016-11-02T01:47:40.923Z,6.3
2016-11-02T01:48:01.536Z,6.4
2016-11-02T01:48:22.149Z,6.4
2016-11-02T01:48:43.244Z,6.4
2016-11-02T01:49:03.791Z,6.3
2016-11-02T01:49:24.364Z,6.4
2016-11-02T01:49:44.943Z,6.3
2016-11-02T01:50:05.533Z,6.3
2016-11-02T01:50:26.090Z,6.3
2016-11-02T01:50:46.623Z,6.3
2016-11-02T01:51:07.162Z,6.3
2016-11-02T01:51:27.705Z,6.4
2016-11-02T01:51:48.337Z,6.3
2016-11-02T01:52:08.903Z,6.3
2016-11-02T01:52:29.452Z,6.3
2016-11-02T01:52:49.999Z,6.4
2016-11-02T01:53:10.569Z,6.3
2016-11-02T01:53:31.118Z,6.3
2016-11-02T01:53:51.700Z,6.4
2016-11-02T01:54:12.299Z,6.3
2016-11-02T01:54:32.838Z,6.4
2016-11-02T01:54:53.391Z,6.4
2016-11-02T01:55:13.966Z,6.5
2016-11-02T01:55:34.558Z,6.3
2016-11-02T01:55:55.153Z,6.3
2016-11-02T01:56:15.695Z,6.4
2016-11-02T01:56:36.252Z,6.3
2016-11-02T01:56:56.804Z,6.4
2016-11-02T01:57:17.423Z,6.3
2016-11-02T01:57:37.979Z,6.4
2016-11-02T01:57:58.535Z,6.4
2016-11-02T01:58:19.089Z,6.4
2016-11-02T01:58:39.698Z,6.3
2016-11-02T01:59:00.249Z,6.4
2016-11-02T01:59:20.799Z,6.4
2016-11-02T01:59:41.336Z,6.3
2016-11-02T02:00:01.880Z,6.4
2016-11-02T02:00:22.429Z,6.3
2016-11-02T02:00:43.005Z,6.2
2016-11-02T02:01:03.553Z,6.3
2016-11-02T02:01:24.106Z,6.3
2016-11-02T02:01:44.675Z,6.2
2016-11-02T02:02:05.247Z,6.3
2016-11-02T02:02:25.791Z,6.4
2016-11-02T02:02:46.344Z,6.4
2016-11-02T02:03:06.922Z,6.2
2016-11-02T02:03:27.474Z,6.4
2016-11-02T02:03:48.065Z,6.3
2016-11-02T02:04:08.626Z,6.2
2016-11-02T02:04:29.206Z,6.2
2016-11-02T02:04:49.750Z,6.3
2016-11-02T02:05:10.325Z,6.2
2016-11-02T02:05:30.878Z,6.3
2016-11-02T02:05:51.437Z,6.4
2016-11-02T02:06:12.041Z,6.2
2016-11-02T02:06:32.585Z,6.3
2016-11-02T02:06:53.146Z,6.3
2016-11-02T02:07:13.711Z,6.3
2016-11-02T02:07:34.249Z,6.3
2016-11-02T02:07:54.800Z,6.4
2016-11-02T02:08:15.360Z,6.3
2016-11-02T02:08:35.898Z,6.3
2016-11-02T02:08:56.462Z,6.3
2016-11-02T02:09:17.022Z,6.3
2016-11-02T02:09:37.560Z,6.3
2016-11-02T02:09:58.153Z,6.3
2016-11-02T02:10:18.736Z,6.3
2016-11-02T02:10:39.295Z,6.3
2016-11-02T02:10:59.895Z,6.2
2016-11-02T02:11:20.489Z,6.3
2016-11-02T02:11:41.063Z,6.4
2016-11-02T02:12:01.621Z,6.4
2016-11-02T02:12:22.202Z,6.4
2016-11-02T02:12:42.782Z,6.3
2016-11-02T02:13:03.328Z,6.4
2016-11-02T02:13:23.930Z,6.4
2016-11-02T02:13:44.541Z,6.4
2016-11-02T02:14:05.088Z,6.4
2016-11-02T02:14:25.680Z,6.3
2016-11-02T02:14:46.250Z,6.4
2016-11-02T02:15:07.711Z,6.4
2016-11-02T02:15:28.273Z,6.3
2016-11-02T02:15:48.867Z,6.3
2016-11-02T02:16:09.416Z,6.3
2016-11-02T02:16:29.983Z,6.3
2016-11-02T02:16:50.531Z,6.4
2016-11-02T02:17:11.096Z,6.3
2016-11-02T02:17:31.742Z,6.3
2016-11-02T02:17:52.292Z,6.3
2016-11-02T02:18:12.821Z,6.3
2016-11-02T02:18:33.382Z,6.3
2016-11-02T02:18:53.921Z,6.2
2016-11-02T02:19:14.476Z,6.3
2016-11-02T02:19:35.037Z,6.3
2016-11-02T02:19:55.593Z,6.3
2016-11-02T02:20:16.139Z,6.2
2016-11-02T02:20:36.707Z,6.3
2016-11-02T02:20:57.278Z,6.4
2016-11-02T02:21:17.851Z,6.3
2016-11-02T02:21:38.397Z,6.3
2016-11-02T02:21:59.018Z,6.3
2016-11-02T02:22:19.581Z,6.3
2016-11-02T02:22:40.133Z,6.3
2016-11-02T02:23:00.674Z,6.2
2016-11-02T02:23:21.228Z,6.2
2016-11-02T02:23:41.802Z,6.2
2016-11-02T02:24:02.377Z,6.2
2016-11-02T02:24:22.937Z,6.3
2016-11-02T02:24:43.481Z,6.3
2016-11-02T02:25:04.054Z,6.3
2016-11-02T02:25:24.611Z,6.3
2016-11-02T02:25:45.167Z,6.3
2016-11-02T02:26:05.731Z,6.4
2016-11-02T02:26:26.300Z,6.3
2016-11-02T02:26:46.887Z,6.3
2016-11-02T02:27:07.430Z,6.3
2016-11-02T02:27:27.973Z,6.3
2016-11-02T02:27:48.548Z,6.3
2016-11-02T02:28:09.143Z,6.3
2016-11-02T02:28:29.685Z,6.4
2016-11-02T02:28:50.233Z,6.4
2016-11-02T02:29:10.842Z,6.3
2016-11-02T02:29:31.407Z,6.3
2016-11-02T02:29:51.967Z,6.3
2016-11-02T02:30:12.564Z,6.4
2016-11-02T02:30:33.140Z,6.3
2016-11-02T02:30:53.751Z,6.4
2016-11-02T02:31:14.308Z,6.3
2016-11-02T02:31:34.855Z,6.4
2016-11-02T02:31:55.416Z,6.3
2016-11-02T02:32:15.968Z,6.3
2016-11-02T02:32:36.519Z,6.3
2016-11-02T02:32:57.071Z,6.3
2016-11-02T02:33:17.654Z,6.4
2016-11-02T02:33:38.195Z,6.3
2016-11-02T02:33:58.751Z,6.4
2016-11-02T02:34:19.317Z,6.3
2016-11-02T02:34:39.885Z,6.2
2016-11-02T02:35:00.448Z,6.3
2016-11-02T02:35:20.990Z,6.3
2016-11-02T02:35:41.563Z,6.3
2016-11-02T02:36:02.100Z,6.3
2016-11-02T02:36:22.719Z,6.3
2016-11-02T02:36:43.277Z,6.4
2016-11-02T02:37:03.842Z,6.4
2016-11-02T02:37:24.411Z,6.3
2016-11-02T02:37:44.963Z,6.3
2016-11-02T02:38:05.531Z,6.3
2016-11-02T02:38:26.086Z,6.3
2016-11-02T02:38:46.650Z,6.3
2016-11-02T02:39:07.201Z,6.3
2016-11-02T02:39:27.736Z,6.3
2016-11-02T02:39:48.282Z,6.3
2016-11-02T02:40:08.871Z,6.3
2016-11-02T02:40:29.463Z,6.3
2016-11-02T02:40:50.004Z,6.4
2016-11-02T02:41:10.543Z,6.4
2016-11-02T02:41:31.100Z,6.4
2016-11-02T02:41:51.666Z,6.3
2016-11-02T02:42:12.228Z,6.3
2016-11-02T02:42:32.812Z,6.3
2016-11-02T02:42:53.361Z,6.3
2016-11-02T02:43:13.943Z,6.3
2016-11-02T02:43:34.485Z,6.3
2016-11-02T02:43:55.056Z,6.3
2016-11-02T02:44:15.602Z,6.4
2016-11-02T02:44:36.154Z,6.4
2016-11-02T02:44:56.733Z,6.3
2016-11-02T02:45:17.312Z,6.4
2016-11-02T02:45:38.737Z,6.4
2016-11-02T02:45:59.317Z,6.3
2016-11-02T02:46:19.873Z,6.4
2016-11-02T02:46:40.449Z,6.3
2016-11-02T02:47:00.986Z,6.4
2016-11-02T02:47:21.582Z,6.4
2016-11-02T02:47:42.126Z,6.4
2016-11-02T02:48:02.681Z,6.4
2016-11-02T02:48:23.255Z,6.3
2016-11-02T02:48:43.873Z,6.5
2016-11-02T02:49:04.792Z,6.4
2016-11-02T02:49:25.362Z,6.5
2016-11-02T02:49:45.899Z,6.5
2016-11-02T02:50:06.451Z,6.4
2016-11-02T02:50:27.007Z,6.4
2016-11-02T02:50:47.572Z,6.4
2016-11-02T02:51:08.124Z,6.4
2016-11-02T02:51:28.688Z,6.5
2016-11-02T02:51:49.237Z,6.5
2016-11-02T02:52:09.811Z,6.4
2016-11-02T02:52:30.354Z,6.5
2016-11-02T02:52:50.885Z,6.5
2016-11-02T02:53:11.460Z,6.4
2016-11-02T02:53:31.998Z,6.5
2016-11-02T02:53:52.643Z,6.4
2016-11-02T02:54:13.230Z,6.4
2016-11-02T02:54:33.779Z,6.4
2016-11-02T02:54:54.329Z,6.5
2016-11-02T02:55:14.879Z,6.4
2016-11-02T02:55:35.493Z,6.5
2016-11-02T02:55:56.051Z,6.4
2016-11-02T02:56:16.636Z,6.4
2016-11-02T02:56:37.187Z,6.5
2016-11-02T02:56:57.740Z,6.4
2016-11-02T02:57:18.296Z,6.4
2016-11-02T02:57:38.830Z,6.4
2016-11-02T02:57:59.391Z,6.4
2016-11-02T02:58:19.985Z,6.4
2016-11-02T02:58:40.554Z,6.5
2016-11-02T02:59:01.116Z,6.4
2016-11-02T02:59:21.716Z,6.4
2016-11-02T02:59:42.293Z,6.5
2016-11-02T03:00:02.846Z,6.4
2016-11-02T03:00:23.379Z,6.5
2016-11-02T03:00:43.930Z,6.5
2016-11-02T03:01:04.494Z,6.5
2016-11-02T03:01:25.043Z,6.5
2016-11-02T03:01:45.620Z,6.5
2016-11-02T03:02:06.212Z,6.6
2016-11-02T03:02:26.789Z,6.6
2016-11-02T03:02:47.357Z,6.5
2016-11-02T03:03:07.906Z,6.6
2016-11-02T03:03:28.473Z,6.5
2016-11-02T03:03:49.036Z,6.5
2016-11-02T03:04:09.583Z,6.6
2016-11-02T03:04:30.145Z,6.6
2016-11-02T03:04:50.723Z,6.5
2016-11-02T03:05:11.270Z,6.5
2016-11-02T03:05:31.833Z,6.5
2016-11-02T03:05:52.382Z,6.6
2016-11-02T03:06:12.941Z,6.6
2016-11-02T03:06:33.499Z,6.6
2016-11-02T03:06:54.139Z,6.5
2016-11-02T03:07:14.683Z,6.6
2016-11-02T03:07:35.247Z,6.6
2016-11-02T03:07:55.799Z,6.6
2016-11-02T03:08:16.357Z,6.5
2016-11-02T03:08:36.918Z,6.6
2016-11-02T03:08:57.468Z,6.5
2016-11-02T03:09:18.035Z,6.5
2016-11-02T03:09:38.592Z,6.5
2016-11-02T03:09:59.152Z,6.5
2016-11-02T03:10:19.754Z,6.5
2016-11-02T03:10:40.308Z,6.5
2016-11-02T03:11:00.923Z,6.5
2016-11-02T03:11:21.457Z,6.5
2016-11-02T03:11:42.027Z,6.5
2016-11-02T03:12:02.609Z,6.5
2016-11-02T03:12:23.171Z,6.6
2016-11-02T03:12:43.727Z,6.5
2016-11-02T03:13:04.267Z,6.5
2016-11-02T03:13:24.842Z,6.6
2016-11-02T03:13:45.384Z,6.5
2016-11-02T03:14:05.934Z,6.5
2016-11-02T03:14:26.506Z,6.5
2016-11-02T03:14:47.057Z,6.5
2016-11-02T03:15:07.666Z,6.5
2016-11-02T03:15:28.225Z,6.5
2016-11-02T03:15:48.835Z,6.5
2016-11-02T03:16:09.413Z,6.5
2016-11-02T03:16:29.997Z,6.5
2016-11-02T03:16:50.574Z,6.5
2016-11-02T03:17:11.146Z,6.5
2016-11-02T03:17:31.695Z,6.5
2016-11-02T03:17:52.231Z,6.6
2016-11-02T03:18:12.803Z,6.6
2016-11-02T03:18:33.360Z,6.5
2016-11-02T03:18:53.920Z,6.5
2016-11-02T03:19:14.496Z,6.5
2016-11-02T03:19:35.053Z,6.6
2016-11-02T03:19:55.616Z,6.5
2016-11-02T03:20:16.173Z,6.5
2016-11-02T03:20:36.733Z,6.5
2016-11-02T03:20:57.288Z,6.6
2016-11-02T03:21:17.834Z,6.6
2016-11-02T03:21:38.381Z,6.5
2016-11-02T03:21:58.938Z,6.6
2016-11-02T03:22:19.490Z,6.5
2016-11-02T03:22:40.051Z,6.5
2016-11-02T03:23:00.624Z,6.6
2016-11-02T03:23:21.171Z,6.5
2016-11-02T03:23:42.698Z,6.6
2016-11-02T03:24:03.250Z,6.5
2016-11-02T03:24:23.827Z,6.6
2016-11-02T03:24:44.377Z,6.5
2016-11-02T03:25:04.928Z,6.5
2016-11-02T03:25:25.474Z,6.6
2016-11-02T03:25:46.064Z,6.6
2016-11-02T03:26:06.640Z,6.5
2016-11-02T03:26:27.200Z,6.4
2016-11-02T03:26:47.756Z,6.4
2016-11-02T03:27:08.294Z,6.5
2016-11-02T03:27:28.851Z,6.5
2016-11-02T03:27:49.442Z,6.6
2016-11-02T03:28:09.993Z,6.6
2016-11-02T03:28:30.541Z,6.5
2016-11-02T03:28:51.085Z,6.5
2016-11-02T03:29:11.669Z,6.5
2016-11-02T03:29:32.244Z,6.5
2016-11-02T03:29:52.854Z,6.5
2016-11-02T03:30:13.412Z,6.4
2016-11-02T03:30:33.970Z,6.4
2016-11-02T03:30:54.517Z,6.5
2016-11-02T03:31:15.054Z,6.5
2016-11-02T03:31:35.620Z,6.5
2016-11-02T03:31:56.180Z,6.4
2016-11-02T03:32:16.756Z,6.5
2016-11-02T03:32:37.330Z,6.5
2016-11-02T03:32:57.887Z,6.5
2016-11-02T03:33:18.447Z,6.5
2016-11-02T03:33:38.994Z,6.5
2016-11-02T03:33:59.530Z,6.5
2016-11-02T03:34:20.103Z,6.5
2016-11-02T03:34:40.688Z,6.5
2016-11-02T03:35:01.235Z,6.4
2016-11-02T03:35:21.806Z,6.5
2016-11-02T03:35:42.372Z,6.5
2016-11-02T03:36:02.980Z,6.5
2016-11-02T03:36:23.544Z,6.5
2016-11-02T03:36:44.102Z,6.5
2016-11-02T03:37:04.675Z,6.5
2016-11-02T03:37:25.269Z,6.5
2016-11-02T03:37:45.860Z,6.6
2016-11-02T03:38:06.467Z,6.5
2016-11-02T03:38:27.038Z,6.6
2016-11-02T03:38:47.625Z,6.5
2016-11-02T03:39:08.179Z,6.6
2016-11-02T03:39:28.719Z,6.6
2016-11-02T03:39:49.266Z,6.5
2016-11-02T03:40:09.826Z,6.6
2016-11-02T03:40:30.368Z,6.6
2016-11-02T03:40:50.916Z,6.5
2016-11-02T03:41:11.884Z,6.5
2016-11-02T03:41:32.446Z,6.5
2016-11-02T03:41:53.013Z,6.6
2016-11-02T03:42:13.555Z,6.6
2016-11-02T03:42:34.096Z,6.5
2016-11-02T03:42:54.647Z,6.5
2016-11-02T03:43:15.241Z,6.6
2016-11-02T03:43:35.789Z,6.6
2016-11-02T03:43:56.369Z,6.6
2016-11-02T03:44:16.947Z,6.5
2016-11-02T03:44:37.520Z,6.5
2016-11-02T03:44:58.109Z,6.5
2016-11-02T03:45:18.689Z,6.6
2016-11-02T03:45:39.240Z,6.6
2016-11-02T03:45:59.867Z,6.6
2016-11-02T03:46:20.449Z,6.6
2016-11-02T03:46:41.041Z,6.6
2016-11-02T03:47:01.595Z,6.5
2016-11-02T03:47:22.148Z,6.5
2016-11-02T03:47:42.719Z,6.6
2016-11-02T03:48:03.275Z,6.5
2016-11-02T03:48:24.348Z,6.5
2016-11-02T03:48:44.921Z,6.5
2016-11-02T03:49:05.588Z,6.5
2016-11-02T03:49:26.121Z,6.6
2016-11-02T03:49:46.713Z,6.6
2016-11-02T03:50:07.256Z,6.6
2016-11-02T03:50:27.807Z,6.5
2016-11-02T03:50:48.365Z,6.5
2016-11-02T03:51:08.922Z,6.6
2016-11-02T03:51:29.491Z,6.5
2016-11-02T03:51:50.037Z,6.6
2016-11-02T03:52:10.667Z,6.6
2016-11-02T03:52:31.211Z,6.5
2016-11-02T03:52:51.743Z,6.7
2016-11-02T03:53:12.311Z,6.5
2016-11-02T03:53:32.880Z,6.5
2016-11-02T03:53:53.415Z,6.6
2016-11-02T03:54:13.979Z,6.5
2016-11-02T03:54:34.534Z,6.5
2016-11-02T03:54:55.093Z,6.7
2016-11-02T03:55:15.635Z,6.6
2016-11-02T03:55:36.193Z,6.6
2016-11-02T03:55:56.750Z,6.6
2016-11-02T03:56:17.297Z,6.5
2016-11-02T03:56:37.896Z,6.5
2016-11-02T03:56:58.462Z,6.5
2016-11-02T03:57:19.009Z,6.7
2016-11-02T03:57:39.555Z,6.5
2016-11-02T03:58:00.112Z,6.5
2016-11-02T03:58:20.698Z,6.5
2016-11-02T03:58:41.325Z,6.6
2016-11-02T03:59:01.881Z,6.6
2016-11-02T03:59:22.450Z,6.5
2016-11-02T03:59:43.021Z,6.6
2016-11-02T04:00:03.581Z,6.5
2016-11-02T04:00:24.130Z,6.6
2016-11-02T04:00:44.679Z,6.5
2016-11-02T04:01:05.232Z,6.6
2016-11-02T04:01:25.778Z,6.6
2016-11-02T04:01:46.353Z,6.5
2016-11-02T04:02:06.908Z,6.6
2016-11-02T04:02:27.452Z,6.6
2016-11-02T04:02:48.039Z,6.5
2016-11-02T04:03:08.580Z,6.6
2016-11-02T04:03:29.167Z,6.5
2016-11-02T04:03:49.712Z,6.6
2016-11-02T04:04:10.273Z,6.5
2016-11-02T04:04:30.848Z,6.5
2016-11-02T04:04:51.399Z,6.6
2016-11-02T04:05:11.992Z,6.7
2016-11-02T04:05:32.543Z,6.7
2016-11-02T04:05:53.095Z,6.7
2016-11-02T04:06:13.640Z,6.6
2016-11-02T04:06:34.237Z,6.6
2016-11-02T04:06:54.779Z,6.7
2016-11-02T04:07:15.340Z,6.6
2016-11-02T04:07:35.887Z,6.6
2016-11-02T04:07:56.441Z,6.7
2016-11-02T04:08:17.018Z,6.6
2016-11-02T04:08:37.586Z,6.6
2016-11-02T04:08:58.133Z,6.7
2016-11-02T04:09:18.688Z,6.6
2016-11-02T04:09:39.232Z,6.5
2016-11-02T04:09:59.779Z,6.6
2016-11-02T04:10:20.320Z,6.6
2016-11-02T04:10:40.888Z,6.5
2016-11-02T04:11:01.435Z,6.5
2016-11-02T04:11:22.025Z,6.6
2016-11-02T04:11:42.583Z,6.6
2016-11-02T04:12:03.165Z,6.5
2016-11-02T04:12:23.713Z,6.5
2016-11-02T04:12:44.312Z,6.6
2016-11-02T04:13:04.856Z,6.5
2016-11-02T04:13:25.404Z,6.6
2016-11-02T04:13:45.948Z,6.6
2016-11-02T04:14:06.498Z,6.7
2016-11-02T04:14:27.060Z,6.6
2016-11-02T04:14:47.630Z,6.7
2016-11-02T04:15:08.179Z,6.6
2016-11-02T04:15:28.738Z,6.6
2016-11-02T04:15:49.283Z,6.7
2016-11-02T04:16:09.841Z,6.7
2016-11-02T04:16:30.387Z,6.6
2016-11-02T04:16:50.971Z,6.6
2016-11-02T04:17:11.572Z,6.7
2016-11-02T04:17:32.132Z,6.6
2016-11-02T04:17:52.716Z,6.6
2016-11-02T04:18:13.293Z,6.7
2016-11-02T04:18:33.843Z,6.7
2016-11-02T04:18:54.423Z,6.6
2016-11-02T04:19:14.961Z,6.7
2016-11-02T04:19:35.574Z,6.6
2016-11-02T04:19:56.144Z,6.6
2016-11-02T04:20:16.731Z,6.7
2016-11-02T04:20:37.345Z,6.7
2016-11-02T04:20:57.898Z,6.7
2016-11-02T04:21:18.449Z,6.7
2016-11-02T04:21:39.006Z,6.7
2016-11-02T04:21:59.623Z,6.7
2016-11-02T04:22:20.176Z,6.7
2016-11-02T04:22:40.717Z,6.7
2016-11-02T04:23:01.354Z,6.7
2016-11-02T04:23:21.945Z,6.6
2016-11-02T04:23:42.507Z,6.7
2016-11-02T04:24:03.057Z,6.7
2016-11-02T04:24:23.646Z,6.6
2016-11-02T04:24:44.228Z,6.7
2016-11-02T04:25:04.785Z,6.6
2016-11-02T04:25:25.351Z,6.6
2016-11-02T04:25:45.902Z,6.6
2016-11-02T04:26:06.450Z,6.6
2016-11-02T04:26:26.999Z,6.6
2016-11-02T04:26:47.547Z,6.7
2016-11-02T04:27:08.132Z,6.7
2016-11-02T04:27:28.715Z,6.7
2016-11-02T04:27:49.359Z,6.7
2016-11-02T04:28:09.911Z,6.7
2016-11-02T04:28:30.474Z,6.6
2016-11-02T04:28:51.065Z,6.6
2016-11-02T04:29:11.619Z,6.7
2016-11-02T04:29:32.185Z,6.5
2016-11-02T04:29:52.765Z,6.5
2016-11-02T04:30:13.319Z,6.7
2016-11-02T04:30:33.865Z,6.7
2016-11-02T04:30:54.448Z,6.6
2016-11-02T04:31:14.988Z,6.6
2016-11-02T04:31:35.565Z,6.5
2016-11-02T04:31:56.119Z,6.5
2016-11-02T04:32:16.679Z,6.5
2016-11-02T04:32:37.300Z,6.6
2016-11-02T04:32:57.855Z,6.6
2016-11-02T04:33:18.423Z,6.6
2016-11-02T04:33:38.981Z,6.6
2016-11-02T04:33:59.524Z,6.6
2016-11-02T04:34:20.176Z,6.5
2016-11-02T04:34:40.748Z,6.6
2016-11-02T04:35:01.427Z,6.6
2016-11-02T04:35:21.982Z,6.6
2016-11-02T04:35:42.526Z,6.5
2016-11-02T04:36:03.112Z,6.5
2016-11-02T04:36:23.653Z,6.6
2016-11-02T04:36:44.204Z,6.6
2016-11-02T04:37:04.800Z,6.6
2016-11-02T04:37:25.375Z,6.5
2016-11-02T04:37:45.945Z,6.5
2016-11-02T04:38:06.605Z,6.5
2016-11-02T04:38:27.148Z,6.6
2016-11-02T04:38:47.711Z,6.6
2016-11-02T04:39:08.281Z,6.6
2016-11-02T04:39:28.867Z,6.5
2016-11-02T04:39:49.421Z,6.5
2016-11-02T04:40:09.975Z,6.5
2016-11-02T04:40:30.547Z,6.5
2016-11-02T04:40:51.096Z,6.5
2016-11-02T04:41:11.697Z,6.5
2016-11-02T04:41:32.291Z,6.5
2016-11-02T04:41:52.858Z,6.5
2016-11-02T04:42:13.632Z,6.5
2016-11-02T04:42:34.182Z,6.5
2016-11-02T04:42:54.745Z,6.5
2016-11-02T04:43:15.303Z,6.5
2016-11-02T04:43:35.872Z,6.4
2016-11-02T04:43:56.460Z,6.4